createdAt,value
2022-12-24T00:00:24.615Z,412.00
2022-12-24T00:01:24.445Z,414.00
2022-12-24T00:02:24.563Z,415.00
2022-12-24T00:03:24.593Z,416.00
2022-12-24T00:04:24.419Z,414.00
2022-12-24T00:05:24.410Z,414.00
2022-12-24T00:06:24.420Z,411.00
2022-12-24T00:07:24.413Z,412.00
2022-12-24T07:45:59.133Z,398.00
2022-12-24T07:46:59.202Z,398.00
2022-12-24T07:47:59.123Z,401.00
2022-12-24T07:48:59.104Z,401.00
2022-12-24T07:49:59.097Z,402.00
2022-12-24T07:50:59.122Z,400.00
2022-12-24T07:51:59.076Z,399.00
2022-12-24T07:52:59.083Z,398.00
2022-12-24T07:53:59.062Z,398.00
2022-12-24T07:54:59.048Z,399.00
2022-12-24T07:55:59.038Z,399.00
2022-12-24T07:56:59.032Z,398.00
2022-12-24T07:57:59.016Z,400.00
2022-12-24T07:58:59.006Z,402.00
2022-12-24T07:59:58.997Z,403.00
2022-12-24T08:00:58.987Z,403.00
2022-12-24T08:01:59.227Z,404.00
2022-12-24T08:02:59.182Z,403.00
2022-12-24T08:03:59.094Z,403.00
2022-12-24T08:04:58.950Z,403.00
2022-12-24T08:05:58.937Z,402.00
2022-12-24T08:06:58.952Z,402.00
2022-12-24T08:07:58.918Z,404.00
2022-12-24T08:08:58.913Z,403.00
2022-12-24T08:09:58.900Z,403.00
2022-12-24T08:10:58.890Z,404.00
2022-12-24T08:11:58.896Z,402.00
2022-12-24T08:12:58.873Z,405.00
2022-12-24T08:13:58.867Z,406.00
2022-12-24T08:14:58.858Z,409.00
2022-12-24T08:15:58.896Z,410.00
2022-12-24T08:16:58.837Z,410.00
2022-12-24T08:17:58.825Z,408.00
2022-12-24T08:18:58.819Z,406.00
2022-12-24T08:19:58.813Z,406.00
2022-12-24T08:20:58.797Z,406.00
2022-12-24T08:21:58.788Z,405.00
2022-12-24T08:22:58.802Z,405.00
2022-12-24T08:23:58.774Z,406.00
2022-12-24T08:24:58.760Z,408.00
2022-12-24T08:25:58.753Z,408.00
2022-12-24T08:26:58.741Z,405.00
2022-12-24T08:27:58.728Z,406.00
2022-12-24T08:28:58.734Z,407.00
2022-12-24T08:29:58.714Z,406.00
2022-12-24T08:30:58.701Z,404.00
2022-12-24T08:31:58.812Z,405.00
2022-12-24T08:32:58.684Z,406.00
2022-12-24T08:33:58.686Z,405.00
2022-12-24T08:34:58.670Z,406.00
2022-12-24T08:35:58.664Z,407.00
2022-12-24T08:36:58.656Z,406.00
2022-12-24T08:37:58.646Z,407.00
2022-12-24T08:38:58.649Z,408.00
2022-12-24T08:39:58.632Z,408.00
2022-12-24T08:40:58.615Z,407.00
2022-12-24T08:41:58.781Z,408.00
2022-12-24T08:42:58.668Z,407.00
2022-12-24T08:43:58.574Z,409.00
2022-12-24T08:44:58.589Z,409.00
2022-12-24T08:45:58.609Z,407.00
2022-12-24T08:46:58.551Z,405.00
2022-12-24T08:47:58.541Z,404.00
2022-12-24T08:48:58.533Z,403.00
2022-12-24T08:49:58.528Z,403.00
2022-12-24T08:50:58.513Z,399.00
2022-12-24T08:51:58.511Z,400.00
2022-12-24T08:52:58.495Z,399.00
2022-12-24T08:53:58.490Z,398.00
2022-12-24T08:54:58.499Z,399.00
2022-12-24T08:55:58.465Z,401.00
2022-12-24T08:56:58.470Z,399.00
2022-12-24T08:57:58.447Z,400.00
2022-12-24T08:58:58.439Z,401.00
2022-12-24T08:59:58.435Z,400.00
2022-12-24T09:00:58.467Z,398.00
2022-12-24T09:01:58.685Z,397.00
2022-12-24T09:02:58.594Z,395.00
2022-12-24T09:03:58.394Z,396.00
2022-12-24T09:04:58.381Z,397.00
2022-12-24T09:05:58.380Z,396.00
2022-12-24T09:06:58.363Z,398.00
2022-12-24T09:07:58.351Z,397.00
2022-12-24T09:08:58.342Z,397.00
2022-12-24T09:09:58.334Z,398.00
2022-12-24T09:10:58.349Z,399.00
2022-12-24T09:11:58.312Z,398.00
2022-12-24T09:12:58.303Z,397.00
2022-12-24T09:13:58.305Z,398.00
2022-12-24T09:15:03.441Z,396.00
2022-12-24T09:15:58.277Z,398.00
2022-12-24T09:16:58.363Z,398.00
2022-12-24T09:17:58.259Z,397.00
2022-12-24T09:18:58.320Z,398.00
2022-12-24T09:19:58.242Z,398.00
2022-12-24T09:20:58.239Z,398.00
2022-12-24T09:21:58.216Z,397.00
2022-12-24T09:22:58.219Z,396.00
2022-12-24T09:23:58.207Z,396.00
2022-12-24T09:24:58.195Z,397.00
2022-12-24T09:25:58.187Z,396.00
2022-12-24T09:26:58.319Z,396.00
2022-12-24T09:27:58.162Z,398.00
2022-12-24T09:28:58.156Z,399.00
2022-12-24T09:29:58.149Z,404.00
2022-12-24T09:30:58.130Z,403.00
2022-12-24T09:31:58.178Z,404.00
2022-12-24T09:32:58.115Z,403.00
2022-12-24T09:33:58.105Z,403.00
2022-12-24T09:34:58.097Z,404.00
2022-12-24T09:35:58.111Z,403.00
2022-12-24T09:36:58.079Z,404.00
2022-12-24T09:37:58.092Z,409.00
2022-12-24T09:38:58.061Z,408.00
2022-12-24T09:39:58.049Z,406.00
2022-12-24T09:41:01.148Z,404.00
2022-12-24T09:41:58.031Z,403.00
2022-12-24T09:42:58.050Z,403.00
2022-12-24T09:43:58.014Z,402.00
2022-12-24T09:44:58.003Z,402.00
2022-12-24T09:45:58.058Z,399.00
2022-12-24T09:46:57.988Z,400.00
2022-12-24T09:47:57.980Z,400.00
2022-12-24T09:48:57.981Z,401.00
2022-12-24T09:49:57.953Z,400.00
2022-12-24T09:50:57.944Z,402.00
2022-12-24T09:51:57.931Z,401.00
2022-12-24T09:52:57.921Z,405.00
2022-12-24T09:53:57.916Z,404.00
2022-12-24T09:54:57.903Z,404.00
2022-12-24T09:55:57.899Z,404.00
2022-12-24T09:56:57.889Z,405.00
2022-12-24T09:57:57.875Z,404.00
2022-12-24T09:58:57.910Z,404.00
2022-12-24T09:59:57.853Z,402.00
2022-12-24T10:00:57.950Z,401.00
2022-12-24T10:01:57.981Z,400.00
2022-12-24T10:02:57.918Z,404.00
2022-12-24T10:03:57.815Z,403.00
2022-12-24T10:04:57.815Z,407.00
2022-12-24T10:05:57.797Z,409.00
2022-12-24T10:06:57.790Z,410.00
2022-12-24T10:07:57.781Z,408.00
2022-12-24T10:08:57.791Z,406.00
2022-12-24T10:09:57.759Z,405.00
2022-12-24T10:10:57.752Z,405.00
2022-12-24T10:11:57.739Z,407.00
2022-12-24T10:12:57.731Z,407.00
2022-12-24T10:13:57.725Z,406.00
2022-12-24T10:14:57.740Z,404.00
2022-12-24T10:15:57.703Z,404.00
2022-12-24T10:16:57.752Z,402.00
2022-12-24T10:17:57.714Z,403.00
2022-12-24T10:18:57.677Z,403.00
2022-12-24T10:19:57.670Z,402.00
2022-12-24T10:20:57.666Z,403.00
2022-12-24T10:21:57.646Z,403.00
2022-12-24T10:22:57.639Z,403.00
2022-12-24T10:23:57.630Z,404.00
2022-12-24T10:24:57.618Z,402.00
2022-12-24T10:25:57.605Z,401.00
2022-12-24T10:26:57.601Z,402.00
2022-12-24T10:27:57.590Z,400.00
2022-12-24T10:28:57.597Z,399.00
2022-12-24T10:29:57.574Z,401.00
2022-12-24T10:30:57.598Z,400.00
2022-12-24T10:31:57.548Z,401.00
2022-12-24T10:32:57.542Z,402.00
2022-12-24T10:33:57.530Z,401.00
2022-12-24T10:34:57.528Z,403.00
2022-12-24T10:35:57.509Z,404.00
2022-12-24T10:36:57.514Z,403.00
2022-12-24T10:37:57.492Z,403.00
2022-12-24T10:38:57.484Z,404.00
2022-12-24T10:39:57.473Z,403.00
2022-12-24T10:40:57.463Z,400.00
2022-12-24T10:41:57.451Z,401.00
2022-12-24T10:42:57.466Z,401.00
2022-12-24T10:43:57.437Z,400.00
2022-12-24T10:44:57.426Z,399.00
2022-12-24T10:45:57.495Z,400.00
2022-12-24T10:46:57.482Z,399.00
2022-12-24T10:47:57.394Z,397.00
2022-12-24T10:48:57.393Z,396.00
2022-12-24T10:49:57.377Z,394.00
2022-12-24T10:50:57.380Z,394.00
